YTIN weather

Tintinara Airport
South Australia, Australia

Public forecast

Using degrees Celsius for public forecast. Weather courtesy of forecast.io.

Closest aviation weather report (METAR) to Tintinara Airport

Closest report is Adelaide International Airport, 93.3 nm (172.9 km) NW. Retrieved 2019/10/16 10:30 UTC (14 minutes ago):

YPAD 161030Z 25017KT 9999 FEW022 SCT075 BKN105 14/08 Q1015 INTER 1030/1330 5000 SHRA BKN020

Closest aviation forecast (TAF) to Tintinara Airport

Closest forecast is Adelaide International Airport, 93.3 nm (172.9 km) NW. Retrieved 2019/10/16 06:00 UTC (5 hours ago):

TAF YPAD 160509Z 1606/1712 24016KT 9999 SCT030 FM160800 26018KT 9999 -SHRA SCT020 BKN030 FM161800 24014KT 9999 NSW SCT030 INTER 1609/1618 5000 SHRA BKN020